Bedford, IN (47421)

10:21 PM EDT on August 30, 2016 (GMT -0400)
Edgewood Addition | | Change Station

Elev 666 ft 38.86 °N, 86.50 °W | Updated 9 seconds ago

Overcast
Overcast
77.0 °F
Feels Like 79 °F
N
0.0
Wind Variable Wind from SSW
Gusts 0.0 mph

Today
High -- | Low -- °F
--% Chance of Precip.
Yesterday
High -- | Low -- °F
Precip. -- in
Pressure 30.11 in
Visibility 1.8 miles
Clouds Scattered Clouds 2900 ft
Mostly Cloudy 4000 ft
Overcast 4900 ft
Heat Index 79 °F
Dew Point 71 °F
Humidity 82%
Rainfall 0.00 in
Snow Depth Not available.
7:13 AM 8:18 PM
Waning Crescent, 2% visible
SPECI KBMG 310217Z AUTO 00000KT 1 3/4SM +TSRA SCT029 BKN040 OVC049 23/20 A3011 RMK AO2 LTG DSNT ALQDS RAB06 TSB0154 P0012 T02280200
Pressure 30.11 in
Visibility 1.8 miles
Clouds Scattered Clouds 2900 ft
Mostly Cloudy 4000 ft
Overcast 4900 ft
Heat Index 79 °F
Dew Point 71 °F
Humidity 82%
Rainfall 0.00 in
Snow Depth Not available.
7:13 AM 8:18 PM
Waning Crescent, 2% visible
SPECI KBMG 310217Z AUTO 00000KT 1 3/4SM +TSRA SCT029 BKN040 OVC049 23/20 A3011 RMK AO2 LTG DSNT ALQDS RAB06 TSB0154 P0012 T02280200

10-Day Weather Forecast

Almanac

Astronomy

Aug. 30, 2016 Rise Set
Actual Time
Civil Twilight
Nautical Twilight
Astronomical Twilight
Moon
Length of Visible Light
Length of Day
Tomorrow will be .
, % of the Moon is Illuminated

Today's Extremes

State Highs State Lows

Community

WunderPhotos

Upload Photos

1,935,997 photos uploaded!

WunderBlog® & News

Nearby

Air Quality

  Air Quality AQ Index Pollutant
Not available.

Snow Depth

Station Depth Elevation

Earthquake Activity

City Distance Mag. Time & Date
Minimum magnitude displayed is 2.5.

Coastal Water Temperatures

Place Temperature

Stations

Nearby Weather Stations

Station Location Temp. Windchill Dew Point Humidity Wind Precip. Elev Updated Type
                   

Watches & Warnings

There are currently no watches in effect.